sensor_id;sensor_type;location;lat;lon;timestamp;temperature;humidity
20398;DHT22;10358;49.590;11.030;2023-08-31T00:01:31;13.40;99.90
20398;DHT22;10358;49.590;11.030;2023-08-31T00:03:56;13.40;99.90
20398;DHT22;10358;49.590;11.030;2023-08-31T00:06:22;13.30;99.90
20398;DHT22;10358;49.590;11.030;2023-08-31T00:08:47;13.40;99.90
20398;DHT22;10358;49.590;11.030;2023-08-31T00:11:13;13.40;99.90
20398;DHT22;10358;49.590;11.030;2023-08-31T00:13:40;13.40;99.90
20398;DHT22;10358;49.590;11.030;2023-08-31T00:16:05;13.40;99.90
20398;DHT22;10358;49.590;11.030;2023-08-31T00:18:31;13.40;99.90
20398;DHT22;10358;49.590;11.030;2023-08-31T00:20:57;13.40;99.90
20398;DHT22;10358;49.590;11.030;2023-08-31T00:23:23;13.40;99.90
20398;DHT22;10358;49.590;11.030;2023-08-31T00:25:48;13.50;99.90
20398;DHT22;10358;49.590;11.030;2023-08-31T00:28:15;13.50;99.90
20398;DHT22;10358;49.590;11.030;2023-08-31T00:30:41;13.50;99.90
20398;DHT22;10358;49.590;11.030;2023-08-31T00:33:07;13.50;99.90
20398;DHT22;10358;49.590;11.030;2023-08-31T00:35:33;13.50;99.90
20398;DHT22;10358;49.590;11.030;2023-08-31T00:38:00;13.50;99.90
20398;DHT22;10358;49.590;11.030;2023-08-31T00:40:26;13.50;99.90
20398;DHT22;10358;49.590;11.030;2023-08-31T00:42:51;13.50;99.90
20398;DHT22;10358;49.590;11.030;2023-08-31T00:45:18;13.50;99.90
20398;DHT22;10358;49.590;11.030;2023-08-31T00:47:45;13.50;99.90
20398;DHT22;10358;49.590;11.030;2023-08-31T00:50:12;13.50;99.90
20398;DHT22;10358;49.590;11.030;2023-08-31T00:52:38;13.50;99.90
20398;DHT22;10358;49.590;11.030;2023-08-31T00:55:04;13.60;99.90
20398;DHT22;10358;49.590;11.030;2023-08-31T00:57:30;13.60;99.90
20398;DHT22;10358;49.590;11.030;2023-08-31T00:59:56;13.60;99.90
20398;DHT22;10358;49.590;11.030;2023-08-31T01:02:40;13.70;99.90
20398;DHT22;10358;49.590;11.030;2023-08-31T01:05:20;13.70;99.90
20398;DHT22;10358;49.590;11.030;2023-08-31T01:07:57;13.60;99.90
20398;DHT22;10358;49.590;11.030;2023-08-31T01:13:14;13.70;99.90
20398;DHT22;10358;49.590;11.030;2023-08-31T01:15:52;13.70;99.90
20398;DHT22;10358;49.590;11.030;2023-08-31T01:18:21;13.60;99.90
20398;DHT22;10358;49.590;11.030;2023-08-31T01:20:58;13.70;99.90
20398;DHT22;10358;49.590;11.030;2023-08-31T01:23:44;13.60;99.90
20398;DHT22;10358;49.590;11.030;2023-08-31T01:26:10;13.60;99.90
20398;DHT22;10358;49.590;11.030;2023-08-31T01:28:36;13.60;99.90
20398;DHT22;10358;49.590;11.030;2023-08-31T01:31:05;13.60;99.90
20398;DHT22;10358;49.590;11.030;2023-08-31T01:33:34;13.50;99.90
20398;DHT22;10358;49.590;11.030;2023-08-31T01:36:04;13.50;99.90
20398;DHT22;10358;49.590;11.030;2023-08-31T01:38:35;13.50;99.90
20398;DHT22;10358;49.590;11.030;2023-08-31T01:41:08;13.50;99.90
20398;DHT22;10358;49.590;11.030;2023-08-31T01:43:36;13.50;99.90
20398;DHT22;10358;49.590;11.030;2023-08-31T01:46:02;13.50;99.90
20398;DHT22;10358;49.590;11.030;2023-08-31T01:48:29;13.50;99.90
20398;DHT22;10358;49.590;11.030;2023-08-31T01:50:54;13.50;99.90
20398;DHT22;10358;49.590;11.030;2023-08-31T01:53:20;13.40;99.90
20398;DHT22;10358;49.590;11.030;2023-08-31T01:55:45;13.50;99.90
20398;DHT22;10358;49.590;11.030;2023-08-31T01:58:11;13.40;99.90
20398;DHT22;10358;49.590;11.030;2023-08-31T02:00:36;13.50;99.90
20398;DHT22;10358;49.590;11.030;2023-08-31T02:03:04;13.50;99.90
20398;DHT22;10358;49.590;11.030;2023-08-31T02:05:30;13.50;99.90
20398;DHT22;10358;49.590;11.030;2023-08-31T02:07:55;13.50;99.90
20398;DHT22;10358;49.590;11.030;2023-08-31T02:10:21;13.50;99.90
20398;DHT22;10358;49.590;11.030;2023-08-31T02:12:47;13.50;99.90
20398;DHT22;10358;49.590;11.030;2023-08-31T02:15:12;13.50;99.90
20398;DHT22;10358;49.590;11.030;2023-08-31T02:17:38;13.50;99.90
20398;DHT22;10358;49.590;11.030;2023-08-31T02:20:04;13.50;99.90
20398;DHT22;10358;49.590;11.030;2023-08-31T02:22:33;13.50;99.90
20398;DHT22;10358;49.590;11.030;2023-08-31T02:24:59;13.40;99.90
20398;DHT22;10358;49.590;11.030;2023-08-31T02:27:26;13.40;99.90
20398;DHT22;10358;49.590;11.030;2023-08-31T02:29:52;13.50;99.90
20398;DHT22;10358;49.590;11.030;2023-08-31T02:32:17;13.40;99.90
20398;DHT22;10358;49.590;11.030;2023-08-31T02:34:43;13.40;99.90
20398;DHT22;10358;49.590;11.030;2023-08-31T02:37:08;13.30;99.90
20398;DHT22;10358;49.590;11.030;2023-08-31T02:39:34;13.30;99.90
20398;DHT22;10358;49.590;11.030;2023-08-31T02:41:59;13.30;99.90
20398;DHT22;10358;49.590;11.030;2023-08-31T02:44:25;13.20;99.90
20398;DHT22;10358;49.590;11.030;2023-08-31T02:46:50;13.20;99.90
20398;DHT22;10358;49.590;11.030;2023-08-31T02:49:16;13.10;99.90
20398;DHT22;10358;49.590;11.030;2023-08-31T02:51:42;13.20;99.90
20398;DHT22;10358;49.590;11.030;2023-08-31T02:54:07;13.10;99.90
20398;DHT22;10358;49.590;11.030;2023-08-31T02:56:33;13.10;99.90
20398;DHT22;10358;49.590;11.030;2023-08-31T02:58:58;13.00;99.90
20398;DHT22;10358;49.590;11.030;2023-08-31T06:05:30;14.20;99.90
20398;DHT22;10358;49.590;11.030;2023-08-31T06:07:57;14.60;99.90
20398;DHT22;10358;49.590;11.030;2023-08-31T06:10:22;14.30;99.90
20398;DHT22;10358;49.590;11.030;2023-08-31T06:12:49;14.00;99.90
20398;DHT22;10358;49.590;11.030;2023-08-31T06:15:15;13.70;99.90
20398;DHT22;10358;49.590;11.030;2023-08-31T06:17:41;13.60;99.90
20398;DHT22;10358;49.590;11.030;2023-08-31T06:20:07;13.60;99.90
20398;DHT22;10358;49.590;11.030;2023-08-31T06:22:34;13.50;99.90
20398;DHT22;10358;49.590;11.030;2023-08-31T06:24:59;13.60;99.90
20398;DHT22;10358;49.590;11.030;2023-08-31T06:27:25;13.60;99.90
20398;DHT22;10358;49.590;11.030;2023-08-31T06:29:51;13.70;99.90
20398;DHT22;10358;49.590;11.030;2023-08-31T06:32:17;13.70;99.90
20398;DHT22;10358;49.590;11.030;2023-08-31T06:34:44;13.70;99.90
20398;DHT22;10358;49.590;11.030;2023-08-31T06:37:09;13.80;99.90
20398;DHT22;10358;49.590;11.030;2023-08-31T06:39:35;13.80;99.90
20398;DHT22;10358;49.590;11.030;2023-08-31T06:42:02;13.90;99.90
20398;DHT22;10358;49.590;11.030;2023-08-31T06:44:27;14.00;99.90
20398;DHT22;10358;49.590;11.030;2023-08-31T06:46:55;14.00;99.90
20398;DHT22;10358;49.590;11.030;2023-08-31T06:49:21;14.10;99.90
20398;DHT22;10358;49.590;11.030;2023-08-31T06:51:47;14.20;99.90
20398;DHT22;10358;49.590;11.030;2023-08-31T06:54:12;14.20;99.90
20398;DHT22;10358;49.590;11.030;2023-08-31T06:56:38;14.30;99.90
20398;DHT22;10358;49.590;11.030;2023-08-31T06:59:03;14.30;99.90
20398;DHT22;10358;49.590;11.030;2023-08-31T07:01:29;14.40;99.90
20398;DHT22;10358;49.590;11.030;2023-08-31T07:03:55;14.50;99.90
20398;DHT22;10358;49.590;11.030;2023-08-31T07:06:21;14.50;99.90
20398;DHT22;10358;49.590;11.030;2023-08-31T07:08:47;14.70;99.90
20398;DHT22;10358;49.590;11.030;2023-08-31T07:11:13;14.70;99.90
20398;DHT22;10358;49.590;11.030;2023-08-31T07:13:39;14.80;99.90
20398;DHT22;10358;49.590;11.030;2023-08-31T07:16:05;14.90;99.90
20398;DHT22;10358;49.590;11.030;2023-08-31T07:18:31;14.90;99.90
20398;DHT22;10358;49.590;11.030;2023-08-31T07:20:57;15.00;99.90
20398;DHT22;10358;49.590;11.030;2023-08-31T07:23:23;15.00;99.90
20398;DHT22;10358;49.590;11.030;2023-08-31T07:25:48;15.10;99.90
20398;DHT22;10358;49.590;11.030;2023-08-31T07:28:14;15.30;99.90
20398;DHT22;10358;49.590;11.030;2023-08-31T07:30:40;15.30;99.90
20398;DHT22;10358;49.590;11.030;2023-08-31T07:33:06;15.50;99.90
20398;DHT22;10358;49.590;11.030;2023-08-31T07:35:32;15.60;99.90
20398;DHT22;10358;49.590;11.030;2023-08-31T07:37:58;15.60;99.90
20398;DHT22;10358;49.590;11.030;2023-08-31T07:40:23;15.70;99.90
20398;DHT22;10358;49.590;11.030;2023-08-31T07:42:50;15.80;99.90
20398;DHT22;10358;49.590;11.030;2023-08-31T07:45:16;15.80;99.90
20398;DHT22;10358;49.590;11.030;2023-08-31T07:47:42;15.90;99.90
20398;DHT22;10358;49.590;11.030;2023-08-31T07:50:08;15.90;99.90
20398;DHT22;10358;49.590;11.030;2023-08-31T07:52:33;16.00;99.90
20398;DHT22;10358;49.590;11.030;2023-08-31T07:55:00;16.00;99.90
20398;DHT22;10358;49.590;11.030;2023-08-31T07:57:25;16.20;99.90
20398;DHT22;10358;49.590;11.030;2023-08-31T07:59:51;16.10;99.90
20398;DHT22;10358;49.590;11.030;2023-08-31T08:02:17;16.10;99.90
20398;DHT22;10358;49.590;11.030;2023-08-31T08:04:42;16.00;99.90
20398;DHT22;10358;49.590;11.030;2023-08-31T08:07:10;15.90;99.90
20398;DHT22;10358;49.590;11.030;2023-08-31T08:09:36;15.90;99.90
20398;DHT22;10358;49.590;11.030;2023-08-31T08:12:01;15.90;99.90
20398;DHT22;10358;49.590;11.030;2023-08-31T08:14:28;15.90;99.90
20398;DHT22;10358;49.590;11.030;2023-08-31T08:16:53;16.00;99.90
20398;DHT22;10358;49.590;11.030;2023-08-31T08:19:23;16.10;99.90
20398;DHT22;10358;49.590;11.030;2023-08-31T08:21:49;16.20;99.90
20398;DHT22;10358;49.590;11.030;2023-08-31T08:24:15;16.30;99.90
20398;DHT22;10358;49.590;11.030;2023-08-31T08:26:40;16.30;99.90
20398;DHT22;10358;49.590;11.030;2023-08-31T08:29:06;16.40;99.90
20398;DHT22;10358;49.590;11.030;2023-08-31T08:31:31;16.30;99.90
20398;DHT22;10358;49.590;11.030;2023-08-31T08:33:57;16.30;99.90
20398;DHT22;10358;49.590;11.030;2023-08-31T08:36:23;16.30;99.90
20398;DHT22;10358;49.590;11.030;2023-08-31T08:38:48;16.60;99.90
20398;DHT22;10358;49.590;11.030;2023-08-31T08:41:14;16.70;99.90
20398;DHT22;10358;49.590;11.030;2023-08-31T08:43:43;16.70;99.90
20398;DHT22;10358;49.590;11.030;2023-08-31T08:46:09;16.70;99.90
20398;DHT22;10358;49.590;11.030;2023-08-31T08:48:36;16.90;99.90
20398;DHT22;10358;49.590;11.030;2023-08-31T08:51:03;16.80;99.90
20398;DHT22;10358;49.590;11.030;2023-08-31T08:53:29;16.80;99.90
20398;DHT22;10358;49.590;11.030;2023-08-31T08:55:55;16.60;99.90
20398;DHT22;10358;49.590;11.030;2023-08-31T08:58:20;16.50;99.90
20398;DHT22;10358;49.590;11.030;2023-08-31T09:00:46;16.30;99.90
20398;DHT22;10358;49.590;11.030;2023-08-31T09:03:13;16.20;99.90
20398;DHT22;10358;49.590;11.030;2023-08-31T09:05:39;16.20;99.90
20398;DHT22;10358;49.590;11.030;2023-08-31T09:08:08;16.20;99.90
20398;DHT22;10358;49.590;11.030;2023-08-31T09:10:42;16.20;99.90
20398;DHT22;10358;49.590;11.030;2023-08-31T09:13:12;16.30;99.90
20398;DHT22;10358;49.590;11.030;2023-08-31T09:15:39;16.50;99.90
20398;DHT22;10358;49.590;11.030;2023-08-31T09:18:05;16.60;99.90
20398;DHT22;10358;49.590;11.030;2023-08-31T09:20:31;16.60;99.90
20398;DHT22;10358;49.590;11.030;2023-08-31T09:22:56;16.60;99.90
20398;DHT22;10358;49.590;11.030;2023-08-31T09:25:22;16.60;99.90
20398;DHT22;10358;49.590;11.030;2023-08-31T09:27:48;16.70;99.90
20398;DHT22;10358;49.590;11.030;2023-08-31T09:30:14;16.90;99.90
20398;DHT22;10358;49.590;11.030;2023-08-31T09:32:40;17.00;99.90
20398;DHT22;10358;49.590;11.030;2023-08-31T09:35:11;17.00;99.90
20398;DHT22;10358;49.590;11.030;2023-08-31T09:37:36;17.00;99.90
20398;DHT22;10358;49.590;11.030;2023-08-31T09:40:05;16.90;99.90
20398;DHT22;10358;49.590;11.030;2023-08-31T09:42:40;16.90;99.90
20398;DHT22;10358;49.590;11.030;2023-08-31T09:45:06;16.90;99.90
20398;DHT22;10358;49.590;11.030;2023-08-31T09:47:32;16.90;99.90
20398;DHT22;10358;49.590;11.030;2023-08-31T09:49:58;17.00;99.90
20398;DHT22;10358;49.590;11.030;2023-08-31T09:52:25;17.00;99.90
20398;DHT22;10358;49.590;11.030;2023-08-31T09:54:51;16.90;99.90
20398;DHT22;10358;49.590;11.030;2023-08-31T09:57:20;16.90;99.90
20398;DHT22;10358;49.590;11.030;2023-08-31T09:59:46;17.00;99.90
20398;DHT22;10358;49.590;11.030;2023-08-31T10:02:13;17.00;99.90
20398;DHT22;10358;49.590;11.030;2023-08-31T10:04:41;17.20;99.90
20398;DHT22;10358;49.590;11.030;2023-08-31T10:07:08;17.30;99.90
20398;DHT22;10358;49.590;11.030;2023-08-31T10:09:35;17.30;99.90
20398;DHT22;10358;49.590;11.030;2023-08-31T10:12:04;17.30;99.90
20398;DHT22;10358;49.590;11.030;2023-08-31T10:14:30;17.20;99.90
20398;DHT22;10358;49.590;11.030;2023-08-31T10:16:56;17.20;99.90
20398;DHT22;10358;49.590;11.030;2023-08-31T10:19:23;17.30;99.90
20398;DHT22;10358;49.590;11.030;2023-08-31T10:21:49;17.30;99.90
20398;DHT22;10358;49.590;11.030;2023-08-31T10:24:15;17.30;99.90
20398;DHT22;10358;49.590;11.030;2023-08-31T10:26:40;17.30;99.90
20398;DHT22;10358;49.590;11.030;2023-08-31T10:29:06;17.30;99.90
20398;DHT22;10358;49.590;11.030;2023-08-31T10:31:33;17.30;99.90
20398;DHT22;10358;49.590;11.030;2023-08-31T10:39:06;17.60;99.90
20398;DHT22;10358;49.590;11.030;2023-08-31T10:41:34;17.60;99.90
20398;DHT22;10358;49.590;11.030;2023-08-31T10:44:00;17.60;99.90
20398;DHT22;10358;49.590;11.030;2023-08-31T10:46:34;17.50;99.90
20398;DHT22;10358;49.590;11.030;2023-08-31T10:51:36;17.30;99.90
20398;DHT22;10358;49.590;11.030;2023-08-31T10:54:27;17.40;99.90
20398;DHT22;10358;49.590;11.030;2023-08-31T10:59:50;17.50;99.90
20398;DHT22;10358;49.590;11.030;2023-08-31T11:02:43;17.50;99.90
20398;DHT22;10358;49.590;11.030;2023-08-31T11:07:35;17.50;99.90
20398;DHT22;10358;49.590;11.030;2023-08-31T11:12:43;17.70;99.90
20398;DHT22;10358;49.590;11.030;2023-08-31T11:15:12;17.70;99.90
20398;DHT22;10358;49.590;11.030;2023-08-31T11:17:40;17.70;99.90
20398;DHT22;10358;49.590;11.030;2023-08-31T11:20:06;17.60;99.90
20398;DHT22;10358;49.590;11.030;2023-08-31T11:22:34;17.50;99.90
20398;DHT22;10358;49.590;11.030;2023-08-31T11:25:03;17.50;99.90
20398;DHT22;10358;49.590;11.030;2023-08-31T11:27:29;17.40;99.90
20398;DHT22;10358;49.590;11.030;2023-08-31T11:29:54;17.40;99.90
20398;DHT22;10358;49.590;11.030;2023-08-31T11:32:23;17.40;99.90
20398;DHT22;10358;49.590;11.030;2023-08-31T11:34:50;17.50;99.90
20398;DHT22;10358;49.590;11.030;2023-08-31T11:37:15;17.50;99.90
20398;DHT22;10358;49.590;11.030;2023-08-31T11:39:48;17.50;99.90
20398;DHT22;10358;49.590;11.030;2023-08-31T11:42:13;17.60;99.90
20398;DHT22;10358;49.590;11.030;2023-08-31T11:44:39;17.70;99.90
20398;DHT22;10358;49.590;11.030;2023-08-31T11:47:05;17.70;99.90
20398;DHT22;10358;49.590;11.030;2023-08-31T11:49:31;17.70;99.90
20398;DHT22;10358;49.590;11.030;2023-08-31T11:51:57;17.80;99.90
20398;DHT22;10358;49.590;11.030;2023-08-31T11:54:25;17.80;99.90
20398;DHT22;10358;49.590;11.030;2023-08-31T11:56:51;17.80;99.90
20398;DHT22;10358;49.590;11.030;2023-08-31T11:59:17;17.90;99.90
20398;DHT22;10358;49.590;11.030;2023-08-31T12:01:49;18.00;99.90
20398;DHT22;10358;49.590;11.030;2023-08-31T12:04:24;18.10;99.90
20398;DHT22;10358;49.590;11.030;2023-08-31T12:06:51;18.20;99.90
20398;DHT22;10358;49.590;11.030;2023-08-31T12:09:18;18.30;99.90
20398;DHT22;10358;49.590;11.030;2023-08-31T12:11:50;18.30;99.90
20398;DHT22;10358;49.590;11.030;2023-08-31T12:14:24;18.30;99.90
20398;DHT22;10358;49.590;11.030;2023-08-31T12:16:51;18.30;99.90
20398;DHT22;10358;49.590;11.030;2023-08-31T12:19:17;18.30;99.90
20398;DHT22;10358;49.590;11.030;2023-08-31T12:21:44;18.40;99.90
20398;DHT22;10358;49.590;11.030;2023-08-31T12:24:10;18.50;99.90
20398;DHT22;10358;49.590;11.030;2023-08-31T12:26:36;18.60;99.90
20398;DHT22;10358;49.590;11.030;2023-08-31T12:29:03;18.70;99.90
20398;DHT22;10358;49.590;11.030;2023-08-31T12:31:30;18.90;99.90
20398;DHT22;10358;49.590;11.030;2023-08-31T12:33:56;19.00;99.90
20398;DHT22;10358;49.590;11.030;2023-08-31T12:36:21;19.10;99.90
20398;DHT22;10358;49.590;11.030;2023-08-31T12:38:47;19.10;99.90
20398;DHT22;10358;49.590;11.030;2023-08-31T12:41:12;19.10;99.90
20398;DHT22;10358;49.590;11.030;2023-08-31T12:43:39;19.10;99.90
20398;DHT22;10358;49.590;11.030;2023-08-31T12:46:04;19.00;99.90
20398;DHT22;10358;49.590;11.030;2023-08-31T12:48:35;19.00;99.90
20398;DHT22;10358;49.590;11.030;2023-08-31T12:51:00;19.00;99.90
20398;DHT22;10358;49.590;11.030;2023-08-31T12:53:26;18.90;99.90
20398;DHT22;10358;49.590;11.030;2023-08-31T12:55:52;18.70;99.90
20398;DHT22;10358;49.590;11.030;2023-08-31T12:58:18;18.60;99.90
20398;DHT22;10358;49.590;11.030;2023-08-31T13:00:45;18.50;99.90
20398;DHT22;10358;49.590;11.030;2023-08-31T13:03:12;18.50;99.90
20398;DHT22;10358;49.590;11.030;2023-08-31T13:05:39;18.60;99.90
20398;DHT22;10358;49.590;11.030;2023-08-31T13:08:06;18.80;99.90
20398;DHT22;10358;49.590;11.030;2023-08-31T13:10:31;19.00;99.90
20398;DHT22;10358;49.590;11.030;2023-08-31T13:12:57;19.10;99.90
20398;DHT22;10358;49.590;11.030;2023-08-31T13:15:22;19.30;99.90
20398;DHT22;10358;49.590;11.030;2023-08-31T13:17:48;19.40;99.90
20398;DHT22;10358;49.590;11.030;2023-08-31T13:20:14;19.50;99.90
20398;DHT22;10358;49.590;11.030;2023-08-31T13:22:39;19.50;99.90
20398;DHT22;10358;49.590;11.030;2023-08-31T13:25:05;19.60;99.90
20398;DHT22;10358;49.590;11.030;2023-08-31T13:27:31;19.90;99.90
20398;DHT22;10358;49.590;11.030;2023-08-31T13:29:58;20.20;99.90
20398;DHT22;10358;49.590;11.030;2023-08-31T13:32:24;20.40;99.90
20398;DHT22;10358;49.590;11.030;2023-08-31T13:34:50;20.70;99.90
20398;DHT22;10358;49.590;11.030;2023-08-31T13:37:15;20.90;99.90
20398;DHT22;10358;49.590;11.030;2023-08-31T13:39:41;20.80;99.90
20398;DHT22;10358;49.590;11.030;2023-08-31T13:42:06;20.90;99.90
20398;DHT22;10358;49.590;11.030;2023-08-31T13:44:33;21.10;99.90
20398;DHT22;10358;49.590;11.030;2023-08-31T13:46:59;21.00;99.90
20398;DHT22;10358;49.590;11.030;2023-08-31T13:49:24;20.90;99.90
20398;DHT22;10358;49.590;11.030;2023-08-31T13:51:50;21.10;99.90
20398;DHT22;10358;49.590;11.030;2023-08-31T13:54:16;21.30;99.90
20398;DHT22;10358;49.590;11.030;2023-08-31T13:56:41;21.60;99.90
20398;DHT22;10358;49.590;11.030;2023-08-31T13:59:08;21.80;99.90
20398;DHT22;10358;49.590;11.030;2023-08-31T14:01:33;21.90;99.90
20398;DHT22;10358;49.590;11.030;2023-08-31T14:03:59;21.80;99.90
20398;DHT22;10358;49.590;11.030;2023-08-31T14:06:25;21.70;99.90
20398;DHT22;10358;49.590;11.030;2023-08-31T14:08:50;21.60;99.70
20398;DHT22;10358;49.590;11.030;2023-08-31T14:11:16;21.30;99.90
20398;DHT22;10358;49.590;11.030;2023-08-31T14:13:43;21.20;99.90
20398;DHT22;10358;49.590;11.030;2023-08-31T14:16:11;20.90;99.90
20398;DHT22;10358;49.590;11.030;2023-08-31T14:18:37;21.10;99.90
20398;DHT22;10358;49.590;11.030;2023-08-31T14:21:03;21.20;99.90
20398;DHT22;10358;49.590;11.030;2023-08-31T14:23:29;21.50;99.90
20398;DHT22;10358;49.590;11.030;2023-08-31T14:26:01;21.60;99.90
20398;DHT22;10358;49.590;11.030;2023-08-31T14:28:26;21.60;97.90
20398;DHT22;10358;49.590;11.030;2023-08-31T14:30:52;21.70;96.50
20398;DHT22;10358;49.590;11.030;2023-08-31T14:33:18;21.70;95.30
20398;DHT22;10358;49.590;11.030;2023-08-31T14:35:43;21.90;94.10
20398;DHT22;10358;49.590;11.030;2023-08-31T14:38:10;21.80;91.00
20398;DHT22;10358;49.590;11.030;2023-08-31T14:40:38;21.90;91.50
20398;DHT22;10358;49.590;11.030;2023-08-31T14:43:06;21.90;91.60
20398;DHT22;10358;49.590;11.030;2023-08-31T14:45:32;21.90;91.70
20398;DHT22;10358;49.590;11.030;2023-08-31T14:47:57;22.30;91.00
20398;DHT22;10358;49.590;11.030;2023-08-31T14:50:23;22.70;90.70
20398;DHT22;10358;49.590;11.030;2023-08-31T14:52:49;23.30;90.80
20398;DHT22;10358;49.590;11.030;2023-08-31T14:55:15;23.60;90.20
20398;DHT22;10358;49.590;11.030;2023-08-31T14:57:40;23.70;84.70
20398;DHT22;10358;49.590;11.030;2023-08-31T15:00:08;23.80;81.60
20398;DHT22;10358;49.590;11.030;2023-08-31T15:02:34;23.90;82.30
20398;DHT22;10358;49.590;11.030;2023-08-31T15:05:00;24.30;81.40
20398;DHT22;10358;49.590;11.030;2023-08-31T15:07:25;24.20;78.00
20398;DHT22;10358;49.590;11.030;2023-08-31T15:09:52;24.10;78.30
20398;DHT22;10358;49.590;11.030;2023-08-31T15:12:20;24.20;77.40
20398;DHT22;10358;49.590;11.030;2023-08-31T15:14:48;23.90;77.30
20398;DHT22;10358;49.590;11.030;2023-08-31T15:24:33;24.50;73.70
20398;DHT22;10358;49.590;11.030;2023-08-31T15:30:32;25.10;74.90
20398;DHT22;10358;49.590;11.030;2023-08-31T16:12:58;25.50;67.30
20398;DHT22;10358;49.590;11.030;2023-08-31T16:15:27;26.10;66.30
20398;DHT22;10358;49.590;11.030;2023-08-31T16:17:53;26.40;64.60
20398;DHT22;10358;49.590;11.030;2023-08-31T16:20:19;26.00;64.20
20398;DHT22;10358;49.590;11.030;2023-08-31T16:22:45;25.10;65.30
20398;DHT22;10358;49.590;11.030;2023-08-31T16:25:13;24.40;66.80
20398;DHT22;10358;49.590;11.030;2023-08-31T16:27:42;24.20;66.70
20398;DHT22;10358;49.590;11.030;2023-08-31T16:30:07;24.40;66.90
20398;DHT22;10358;49.590;11.030;2023-08-31T16:32:35;24.80;67.50
20398;DHT22;10358;49.590;11.030;2023-08-31T16:35:00;25.30;67.00
20398;DHT22;10358;49.590;11.030;2023-08-31T16:37:26;25.10;66.60
20398;DHT22;10358;49.590;11.030;2023-08-31T16:39:52;24.70;67.50
20398;DHT22;10358;49.590;11.030;2023-08-31T16:42:17;24.10;68.50
20398;DHT22;10358;49.590;11.030;2023-08-31T16:44:43;23.80;69.60
20398;DHT22;10358;49.590;11.030;2023-08-31T16:47:09;23.60;69.70
20398;DHT22;10358;49.590;11.030;2023-08-31T16:49:36;23.10;71.20
20398;DHT22;10358;49.590;11.030;2023-08-31T16:52:02;23.00;72.20
20398;DHT22;10358;49.590;11.030;2023-08-31T16:54:29;22.70;74.10
20398;DHT22;10358;49.590;11.030;2023-08-31T16:56:54;22.50;74.60
20398;DHT22;10358;49.590;11.030;2023-08-31T16:59:21;22.20;75.70
20398;DHT22;10358;49.590;11.030;2023-08-31T17:01:47;22.00;76.40
20398;DHT22;10358;49.590;11.030;2023-08-31T17:04:13;21.80;77.30
20398;DHT22;10358;49.590;11.030;2023-08-31T17:06:38;21.50;78.30
20398;DHT22;10358;49.590;11.030;2023-08-31T17:09:04;21.20;79.50
20398;DHT22;10358;49.590;11.030;2023-08-31T17:11:33;20.90;80.50
20398;DHT22;10358;49.590;11.030;2023-08-31T17:13:59;20.70;81.80
20398;DHT22;10358;49.590;11.030;2023-08-31T17:16:26;20.50;82.60
20398;DHT22;10358;49.590;11.030;2023-08-31T17:18:51;20.30;83.30
20398;DHT22;10358;49.590;11.030;2023-08-31T17:21:17;20.10;84.20
20398;DHT22;10358;49.590;11.030;2023-08-31T17:23:43;19.90;84.90
20398;DHT22;10358;49.590;11.030;2023-08-31T17:26:20;19.60;86.00
20398;DHT22;10358;49.590;11.030;2023-08-31T17:28:46;19.50;86.60
20398;DHT22;10358;49.590;11.030;2023-08-31T17:31:11;19.30;87.90
20398;DHT22;10358;49.590;11.030;2023-08-31T17:33:37;19.20;88.90
20398;DHT22;10358;49.590;11.030;2023-08-31T17:36:02;19.10;89.90
20398;DHT22;10358;49.590;11.030;2023-08-31T17:38:28;18.90;90.20
20398;DHT22;10358;49.590;11.030;2023-08-31T17:40:53;18.80;90.50
20398;DHT22;10358;49.590;11.030;2023-08-31T17:43:19;18.60;91.00
20398;DHT22;10358;49.590;11.030;2023-08-31T17:45:46;18.60;91.10
20398;DHT22;10358;49.590;11.030;2023-08-31T17:48:12;18.50;91.50
20398;DHT22;10358;49.590;11.030;2023-08-31T17:50:38;18.40;91.90
20398;DHT22;10358;49.590;11.030;2023-08-31T17:53:04;18.30;92.30
20398;DHT22;10358;49.590;11.030;2023-08-31T17:55:31;18.30;92.60
20398;DHT22;10358;49.590;11.030;2023-08-31T17:57:56;18.20;92.90
20398;DHT22;10358;49.590;11.030;2023-08-31T18:00:22;18.10;93.30
20398;DHT22;10358;49.590;11.030;2023-08-31T18:02:48;18.10;93.70
20398;DHT22;10358;49.590;11.030;2023-08-31T18:05:20;18.00;94.00
20398;DHT22;10358;49.590;11.030;2023-08-31T18:07:47;18.00;94.30
20398;DHT22;10358;49.590;11.030;2023-08-31T18:10:14;17.90;94.50
20398;DHT22;10358;49.590;11.030;2023-08-31T18:12:40;17.80;94.80
20398;DHT22;10358;49.590;11.030;2023-08-31T18:15:08;17.80;95.20
20398;DHT22;10358;49.590;11.030;2023-08-31T18:17:34;17.70;95.70
20398;DHT22;10358;49.590;11.030;2023-08-31T18:19:59;17.70;96.10
20398;DHT22;10358;49.590;11.030;2023-08-31T18:22:25;17.60;96.40
20398;DHT22;10358;49.590;11.030;2023-08-31T18:24:52;17.50;97.00
20398;DHT22;10358;49.590;11.030;2023-08-31T18:27:18;17.50;97.50
20398;DHT22;10358;49.590;11.030;2023-08-31T18:29:43;17.50;98.10
20398;DHT22;10358;49.590;11.030;2023-08-31T18:32:09;17.50;98.50
20398;DHT22;10358;49.590;11.030;2023-08-31T18:34:34;17.40;99.30
20398;DHT22;10358;49.590;11.030;2023-08-31T18:37:00;17.40;99.90
20398;DHT22;10358;49.590;11.030;2023-08-31T18:39:25;17.30;99.90
20398;DHT22;10358;49.590;11.030;2023-08-31T18:41:51;17.30;99.90
20398;DHT22;10358;49.590;11.030;2023-08-31T18:44:17;17.20;99.90
20398;DHT22;10358;49.590;11.030;2023-08-31T18:46:42;17.10;99.90
20398;DHT22;10358;49.590;11.030;2023-08-31T18:49:08;17.10;99.90
20398;DHT22;10358;49.590;11.030;2023-08-31T18:51:34;17.00;99.90
20398;DHT22;10358;49.590;11.030;2023-08-31T18:54:05;16.90;99.90
20398;DHT22;10358;49.590;11.030;2023-08-31T18:56:30;16.80;99.90
20398;DHT22;10358;49.590;11.030;2023-08-31T18:58:56;16.70;99.90
20398;DHT22;10358;49.590;11.030;2023-08-31T19:01:22;16.70;99.90
20398;DHT22;10358;49.590;11.030;2023-08-31T19:03:47;16.60;99.90
20398;DHT22;10358;49.590;11.030;2023-08-31T19:06:13;16.60;99.90
20398;DHT22;10358;49.590;11.030;2023-08-31T19:08:39;16.60;99.90
20398;DHT22;10358;49.590;11.030;2023-08-31T19:11:08;16.60;99.90
20398;DHT22;10358;49.590;11.030;2023-08-31T19:13:38;16.50;99.90
20398;DHT22;10358;49.590;11.030;2023-08-31T19:16:04;16.50;99.90
20398;DHT22;10358;49.590;11.030;2023-08-31T19:18:31;16.40;99.90
20398;DHT22;10358;49.590;11.030;2023-08-31T19:21:01;16.40;99.90
20398;DHT22;10358;49.590;11.030;2023-08-31T19:23:32;16.30;99.90
20398;DHT22;10358;49.590;11.030;2023-08-31T19:26:02;16.30;99.90